OMD206 KLAX-KMZJ
Flight info
| Callsign | OMD206 |
|---|---|
| Flight time | 1h 21m |
| Altitude | 39000 |
| Route | LAXX1 TRM BLH KOFFA TFD |
| Aircraft | A20N/M-SDE2E3FGHIRWXY/LB1 |
Departure
| Time | 2026-05-07 19:04 |
|---|---|
| Airport | Los Angeles International Airport (KLAX) |
Arrival
| Time | 2026-05-07 20:25 |
|---|---|
| Airport | Pinal Airpark (KMZJ) |
| Time | Latitude | Longitude | Altitude | Speed | Heading |
|---|---|---|---|---|---|
| 2026-05-07 18:28 | 33.93987 | -118.40373 | 125 ft | 0 kts | 310° |
| 2026-05-07 18:49 | 33.93985 | -118.40371 | 125 ft | 2 kts | 292° |
| 2026-05-07 18:49 | 33.93987 | -118.40353 | 122 ft | 2 kts | 315° |
| 2026-05-07 18:50 | 33.93972 | -118.40346 | 120 ft | 2 kts | 340° |
| 2026-05-07 18:50 | 33.93960 | -118.40333 | 125 ft | 2 kts | 308° |
| 2026-05-07 18:50 | 33.93950 | -118.40318 | 121 ft | 2 kts | 308° |
| 2026-05-07 18:50 | 33.93940 | -118.40303 | 121 ft | 2 kts | 309° |
| 2026-05-07 18:51 | 33.93931 | -118.40286 | 120 ft | 2 kts | 262° |
| 2026-05-07 18:51 | 33.93930 | -118.40298 | 124 ft | 2 kts | 264° |
| 2026-05-07 18:51 | 33.93929 | -118.40315 | 123 ft | 2 kts | 264° |
| 2026-05-07 18:51 | 33.93928 | -118.40326 | 124 ft | 0 kts | 264° |
| 2026-05-07 18:52 | 33.93928 | -118.40327 | 124 ft | 0 kts | 264° |
| 2026-05-07 18:57 | 33.93926 | -118.40348 | 121 ft | 7 kts | 264° |
| 2026-05-07 18:57 | 33.93918 | -118.40429 | 125 ft | 12 kts | 262° |
| 2026-05-07 18:57 | 33.93890 | -118.40521 | 124 ft | 11 kts | 211° |
| 2026-05-07 18:58 | 33.93831 | -118.40487 | 123 ft | 11 kts | 98° |
| 2026-05-07 18:58 | 33.93843 | -118.40366 | 125 ft | 18 kts | 83° |
| 2026-05-07 18:58 | 33.93860 | -118.40194 | 125 ft | 23 kts | 84° |
| 2026-05-07 18:58 | 33.93871 | -118.40070 | 124 ft | 16 kts | 84° |
| 2026-05-07 18:59 | 33.93886 | -118.39911 | 123 ft | 22 kts | 82° |
| 2026-05-07 18:59 | 33.93908 | -118.39707 | 125 ft | 27 kts | 83° |
| 2026-05-07 18:59 | 33.93932 | -118.39462 | 125 ft | 32 kts | 83° |
| 2026-05-07 18:59 | 33.93958 | -118.39215 | 124 ft | 9 kts | 81° |
| 2026-05-07 19:00 | 33.93970 | -118.39122 | 123 ft | 15 kts | 81° |
| 2026-05-07 19:00 | 33.93989 | -118.38974 | 125 ft | 21 kts | 81° |
| 2026-05-07 19:00 | 33.93995 | -118.38860 | 125 ft | 11 kts | 82° |
| 2026-05-07 19:00 | 33.94010 | -118.38739 | 123 ft | 18 kts | 82° |
| 2026-05-07 19:01 | 33.94024 | -118.38567 | 125 ft | 24 kts | 85° |
| 2026-05-07 19:01 | 33.94040 | -118.38395 | 122 ft | 0 kts | 83° |
| 2026-05-07 19:01 | 33.94043 | -118.38370 | 122 ft | 8 kts | 80° |
| 2026-05-07 19:01 | 33.94055 | -118.38264 | 121 ft | 17 kts | 83° |
| 2026-05-07 19:02 | 33.94072 | -118.38102 | 125 ft | 20 kts | 83° |
| 2026-05-07 19:02 | 33.94077 | -118.38047 | 125 ft | 5 kts | 85° |
| 2026-05-07 19:02 | 33.94029 | -118.37999 | 124 ft | 13 kts | 186° |
| 2026-05-07 19:02 | 33.93982 | -118.38067 | 124 ft | 0 kts | 262° |
| 2026-05-07 19:03 | 33.93978 | -118.38106 | 125 ft | 11 kts | 262° |
| 2026-05-07 19:03 | 33.93948 | -118.38373 | 125 ft | 72 kts | 263° |
| 2026-05-07 19:03 | 33.93856 | -118.39277 | 131 ft | 142 kts | 263° |
| 2026-05-07 19:03 | 33.93714 | -118.40633 | 410 ft | 179 kts | 262° |
| 2026-05-07 19:04 | 33.93539 | -118.42280 | 934 ft | 210 kts | 261° |
| 2026-05-07 19:04 | 33.93331 | -118.44161 | 1738 ft | 240 kts | 262° |
| 2026-05-07 19:04 | 33.93109 | -118.46248 | 2835 ft | 260 kts | 264° |
| 2026-05-07 19:04 | 33.92856 | -118.48523 | 3675 ft | 284 kts | 262° |
| 2026-05-07 19:05 | 33.92510 | -118.50865 | 4665 ft | 283 kts | 252° |
| 2026-05-07 19:05 | 33.91520 | -118.52878 | 5730 ft | 280 kts | 226° |
| 2026-05-07 19:05 | 33.89908 | -118.54145 | 6796 ft | 278 kts | 200° |
| 2026-05-07 19:05 | 33.88038 | -118.54668 | 7827 ft | 275 kts | 191° |
| 2026-05-07 19:06 | 33.86148 | -118.55135 | 8720 ft | 279 kts | 191° |
| 2026-05-07 19:06 | 33.82363 | -118.56067 | 10372 ft | 290 kts | 188° |
| 2026-05-07 19:06 | 33.80355 | -118.56471 | 11181 ft | 295 kts | 188° |
| 2026-05-07 19:07 | 33.78312 | -118.56449 | 12009 ft | 295 kts | 165° |
| 2026-05-07 19:07 | 33.76449 | -118.55424 | 12738 ft | 300 kts | 141° |
| 2026-05-07 19:07 | 33.75020 | -118.53530 | 13042 ft | 317 kts | 117° |
| 2026-05-07 19:07 | 33.74291 | -118.50965 | 13258 ft | 335 kts | 95° |
| 2026-05-07 19:08 | 33.74404 | -118.48130 | 13650 ft | 346 kts | 79° |
| 2026-05-07 19:08 | 33.74826 | -118.45274 | 14336 ft | 348 kts | 79° |
| 2026-05-07 19:08 | 33.75108 | -118.42371 | 15004 ft | 352 kts | 84° |
| 2026-05-07 19:08 | 33.75196 | -118.39416 | 15668 ft | 356 kts | 88° |
| 2026-05-07 19:09 | 33.75146 | -118.36430 | 16329 ft | 359 kts | 90° |
| 2026-05-07 19:09 | 33.75026 | -118.33418 | 16946 ft | 363 kts | 91° |
| 2026-05-07 19:09 | 33.74878 | -118.30381 | 17586 ft | 366 kts | 91° |
| 2026-05-07 19:09 | 33.74722 | -118.27322 | 18203 ft | 369 kts | 91° |
| 2026-05-07 19:10 | 33.74566 | -118.24231 | 18755 ft | 372 kts | 91° |
| 2026-05-07 19:10 | 33.74412 | -118.21114 | 19276 ft | 375 kts | 91° |
| 2026-05-07 19:10 | 33.74257 | -118.17964 | 19798 ft | 379 kts | 91° |
| 2026-05-07 19:10 | 33.74101 | -118.14789 | 20301 ft | 382 kts | 91° |
| 2026-05-07 19:11 | 33.73945 | -118.11583 | 20783 ft | 386 kts | 91° |
| 2026-05-07 19:11 | 33.73788 | -118.08394 | 21293 ft | 389 kts | 91° |
| 2026-05-07 19:11 | 33.73626 | -118.05136 | 21794 ft | 392 kts | 91° |
| 2026-05-07 19:11 | 33.73463 | -118.01849 | 22272 ft | 396 kts | 91° |
| 2026-05-07 19:12 | 33.73298 | -117.98535 | 22746 ft | 399 kts | 91° |
| 2026-05-07 19:12 | 33.73130 | -117.95193 | 23243 ft | 402 kts | 91° |
| 2026-05-07 19:12 | 33.72960 | -117.91825 | 23702 ft | 405 kts | 91° |
| 2026-05-07 19:12 | 33.72787 | -117.88438 | 24094 ft | 408 kts | 91° |
| 2026-05-07 19:13 | 33.72613 | -117.85026 | 24483 ft | 410 kts | 91° |
| 2026-05-07 19:13 | 33.72437 | -117.81595 | 24870 ft | 413 kts | 91° |
| 2026-05-07 19:13 | 33.72258 | -117.78137 | 25244 ft | 415 kts | 91° |
| 2026-05-07 19:13 | 33.72078 | -117.74667 | 25609 ft | 417 kts | 91° |
| 2026-05-07 19:14 | 33.71896 | -117.71181 | 25964 ft | 419 kts | 91° |
| 2026-05-07 19:14 | 33.71713 | -117.67674 | 26279 ft | 422 kts | 91° |
| 2026-05-07 19:14 | 33.71527 | -117.64146 | 26619 ft | 424 kts | 91° |
| 2026-05-07 19:14 | 33.71339 | -117.60603 | 26962 ft | 426 kts | 91° |
| 2026-05-07 19:15 | 33.71148 | -117.57043 | 27272 ft | 429 kts | 91° |
| 2026-05-07 19:15 | 33.70957 | -117.53466 | 27609 ft | 430 kts | 91° |
| 2026-05-07 19:15 | 33.70764 | -117.49879 | 27904 ft | 432 kts | 91° |
| 2026-05-07 19:15 | 33.70569 | -117.46272 | 28195 ft | 434 kts | 91° |
| 2026-05-07 19:16 | 33.70372 | -117.42653 | 28481 ft | 436 kts | 91° |
| 2026-05-07 19:16 | 33.70240 | -117.40244 | 28664 ft | 437 kts | 91° |
| 2026-05-07 19:16 | 33.69972 | -117.35362 | 28997 ft | 439 kts | 91° |
| 2026-05-07 19:16 | 33.69769 | -117.31704 | 29255 ft | 440 kts | 91° |
| 2026-05-07 19:17 | 33.69634 | -117.29270 | 29409 ft | 441 kts | 91° |
| 2026-05-07 19:17 | 33.69429 | -117.25586 | 29631 ft | 443 kts | 91° |
| 2026-05-07 19:17 | 33.69221 | -117.21892 | 29891 ft | 444 kts | 91° |
| 2026-05-07 19:17 | 33.68998 | -117.17925 | 30126 ft | 446 kts | 91° |
| 2026-05-07 19:18 | 33.68186 | -117.03752 | 30951 ft | 449 kts | 91° |
| 2026-05-07 19:18 | 33.67313 | -116.88796 | 31987 ft | 446 kts | 91° |
| 2026-05-07 19:18 | 33.66436 | -116.74030 | 33066 ft | 442 kts | 91° |
| 2026-05-07 19:18 | 33.65541 | -116.59394 | 34145 ft | 437 kts | 91° |
| 2026-05-07 19:19 | 33.64839 | -116.48033 | 34669 ft | 440 kts | 91° |
| 2026-05-07 19:19 | 33.64611 | -116.44373 | 34846 ft | 440 kts | 91° |
| 2026-05-07 19:19 | 33.64383 | -116.40708 | 35029 ft | 441 kts | 91° |
| 2026-05-07 19:19 | 33.64153 | -116.37047 | 35172 ft | 441 kts | 91° |
| 2026-05-07 19:20 | 33.63920 | -116.33374 | 35317 ft | 442 kts | 91° |
| 2026-05-07 19:20 | 33.63686 | -116.29691 | 35505 ft | 442 kts | 91° |
| 2026-05-07 19:20 | 33.63451 | -116.26010 | 35659 ft | 443 kts | 91° |
| 2026-05-07 19:20 | 33.63215 | -116.22324 | 35819 ft | 443 kts | 91° |
| 2026-05-07 19:21 | 33.62978 | -116.18635 | 35977 ft | 444 kts | 91° |
| 2026-05-07 19:21 | 33.62742 | -116.14934 | 36137 ft | 444 kts | 90° |
| 2026-05-07 19:21 | 33.62618 | -116.11246 | 36283 ft | 443 kts | 88° |
| 2026-05-07 19:21 | 33.62578 | -116.07589 | 36432 ft | 443 kts | 87° |
| 2026-05-07 19:22 | 33.62548 | -116.03887 | 36581 ft | 444 kts | 87° |
| 2026-05-07 19:22 | 33.62507 | -116.00180 | 36745 ft | 445 kts | 88° |
| 2026-05-07 19:22 | 33.62451 | -115.96468 | 36886 ft | 445 kts | 88° |
| 2026-05-07 19:22 | 33.62386 | -115.92750 | 37024 ft | 446 kts | 88° |
| 2026-05-07 19:23 | 33.62316 | -115.89030 | 37174 ft | 446 kts | 88° |
| 2026-05-07 19:23 | 33.62243 | -115.85305 | 37316 ft | 447 kts | 88° |
| 2026-05-07 19:23 | 33.62168 | -115.81567 | 37465 ft | 447 kts | 88° |
| 2026-05-07 19:23 | 33.62092 | -115.77832 | 37605 ft | 448 kts | 88° |
| 2026-05-07 19:24 | 33.62016 | -115.74094 | 37751 ft | 448 kts | 88° |
| 2026-05-07 19:24 | 33.61938 | -115.70352 | 37885 ft | 449 kts | 88° |
| 2026-05-07 19:24 | 33.61859 | -115.66597 | 38026 ft | 449 kts | 88° |
| 2026-05-07 19:24 | 33.61779 | -115.62856 | 38149 ft | 450 kts | 88° |
| 2026-05-07 19:25 | 33.61698 | -115.59095 | 38263 ft | 450 kts | 88° |
| 2026-05-07 19:25 | 33.61495 | -115.49891 | 38555 ft | 451 kts | 89° |
| 2026-05-07 19:25 | 33.61151 | -115.35000 | 38952 ft | 453 kts | 89° |
| 2026-05-07 19:25 | 33.60775 | -115.19516 | 38956 ft | 464 kts | 89° |
| 2026-05-07 19:26 | 33.59953 | -114.88315 | 38968 ft | 469 kts | 90° |
| 2026-05-07 19:26 | 33.57918 | -114.57101 | 38970 ft | 471 kts | 94° |
| 2026-05-07 19:27 | 33.56599 | -114.42425 | 38963 ft | 472 kts | 94° |
| 2026-05-07 19:27 | 33.55891 | -114.34658 | 38960 ft | 472 kts | 94° |
| 2026-05-07 19:28 | 33.55172 | -114.26832 | 38954 ft | 472 kts | 94° |
| 2026-05-07 19:28 | 33.54451 | -114.19020 | 38956 ft | 472 kts | 94° |
| 2026-05-07 19:29 | 33.53724 | -114.11194 | 38954 ft | 472 kts | 94° |
| 2026-05-07 19:29 | 33.52992 | -114.03378 | 38953 ft | 472 kts | 94° |
| 2026-05-07 19:30 | 33.52254 | -113.95553 | 38968 ft | 472 kts | 95° |
| 2026-05-07 19:30 | 33.51513 | -113.87749 | 38974 ft | 468 kts | 95° |
| 2026-05-07 19:31 | 33.50777 | -113.80062 | 38987 ft | 464 kts | 95° |
| 2026-05-07 19:31 | 33.50036 | -113.72354 | 39000 ft | 467 kts | 95° |
| 2026-05-07 19:32 | 33.49285 | -113.64596 | 39008 ft | 469 kts | 95° |
| 2026-05-07 19:32 | 33.48528 | -113.56838 | 39006 ft | 470 kts | 95° |
| 2026-05-07 19:33 | 33.47780 | -113.49234 | 38999 ft | 451 kts | 95° |
| 2026-05-07 19:33 | 33.47042 | -113.41815 | 38985 ft | 452 kts | 96° |
| 2026-05-07 19:34 | 33.45701 | -113.34453 | 38973 ft | 453 kts | 105° |
| 2026-05-07 19:34 | 33.43423 | -113.27417 | 38950 ft | 455 kts | 114° |
| 2026-05-07 19:35 | 33.40710 | -113.20577 | 38935 ft | 455 kts | 114° |
| 2026-05-07 19:35 | 33.38017 | -113.13739 | 38933 ft | 454 kts | 113° |
| 2026-05-07 19:36 | 33.35319 | -113.06912 | 38940 ft | 454 kts | 113° |
| 2026-05-07 19:36 | 33.32619 | -113.00101 | 38946 ft | 453 kts | 113° |
| 2026-05-07 19:37 | 33.31270 | -112.96704 | 38821 ft | 450 kts | 113° |
| 2026-05-07 19:37 | 33.29926 | -112.93323 | 38257 ft | 451 kts | 113° |
| 2026-05-07 19:37 | 33.28575 | -112.89933 | 37401 ft | 453 kts | 112° |
| 2026-05-07 19:37 | 33.27218 | -112.86532 | 36429 ft | 456 kts | 112° |
| 2026-05-07 19:38 | 33.25844 | -112.83092 | 35492 ft | 458 kts | 112° |
| 2026-05-07 19:38 | 33.24471 | -112.79660 | 34645 ft | 457 kts | 111° |
| 2026-05-07 19:38 | 33.23102 | -112.76242 | 33793 ft | 455 kts | 111° |
| 2026-05-07 19:38 | 33.21739 | -112.72837 | 32765 ft | 454 kts | 111° |
| 2026-05-07 19:39 | 33.20838 | -112.70588 | 32060 ft | 454 kts | 111° |
| 2026-05-07 19:39 | 33.19423 | -112.67052 | 30942 ft | 455 kts | 110° |
| 2026-05-07 19:39 | 33.18054 | -112.63635 | 29819 ft | 455 kts | 110° |
| 2026-05-07 19:39 | 33.16688 | -112.60228 | 28650 ft | 455 kts | 111° |
| 2026-05-07 19:40 | 33.15330 | -112.56850 | 27735 ft | 448 kts | 111° |
| 2026-05-07 19:40 | 33.14009 | -112.53570 | 26881 ft | 441 kts | 111° |
| 2026-05-07 19:40 | 33.12689 | -112.50291 | 26029 ft | 435 kts | 111° |
| 2026-05-07 19:40 | 33.11396 | -112.47078 | 25405 ft | 425 kts | 111° |
| 2026-05-07 19:41 | 33.10130 | -112.43937 | 24781 ft | 416 kts | 111° |
| 2026-05-07 19:41 | 33.08892 | -112.40867 | 24160 ft | 407 kts | 111° |
| 2026-05-07 19:41 | 33.07678 | -112.37859 | 23589 ft | 398 kts | 111° |
| 2026-05-07 19:41 | 33.06488 | -112.34910 | 22992 ft | 390 kts | 111° |
| 2026-05-07 19:42 | 33.05328 | -112.32036 | 22434 ft | 381 kts | 111° |
| 2026-05-07 19:42 | 33.04192 | -112.29226 | 21877 ft | 372 kts | 111° |
| 2026-05-07 19:42 | 33.03079 | -112.26473 | 21333 ft | 365 kts | 111° |
| 2026-05-07 19:42 | 33.01986 | -112.23774 | 20802 ft | 358 kts | 111° |
| 2026-05-07 19:43 | 33.00911 | -112.21121 | 20267 ft | 353 kts | 111° |
| 2026-05-07 19:43 | 32.99852 | -112.18507 | 19748 ft | 348 kts | 111° |
| 2026-05-07 19:43 | 32.98805 | -112.15926 | 19229 ft | 346 kts | 111° |
| 2026-05-07 19:43 | 32.97728 | -112.13260 | 18894 ft | 364 kts | 112° |
| 2026-05-07 19:44 | 32.96627 | -112.10548 | 18643 ft | 364 kts | 112° |
| 2026-05-07 19:44 | 32.95517 | -112.07821 | 17894 ft | 369 kts | 112° |
| 2026-05-07 19:44 | 32.94387 | -112.05042 | 16804 ft | 376 kts | 113° |
| 2026-05-07 19:44 | 32.93250 | -112.02255 | 16131 ft | 371 kts | 113° |
| 2026-05-07 19:45 | 32.92139 | -111.99542 | 15771 ft | 357 kts | 113° |
| 2026-05-07 19:45 | 32.91063 | -111.96914 | 15292 ft | 349 kts | 113° |
| 2026-05-07 19:45 | 32.90011 | -111.94340 | 14759 ft | 344 kts | 114° |
| 2026-05-07 19:45 | 32.88915 | -111.91832 | 14245 ft | 340 kts | 118° |
| 2026-05-07 19:46 | 32.87593 | -111.89552 | 13719 ft | 337 kts | 127° |
| 2026-05-07 19:46 | 32.86054 | -111.87466 | 13184 ft | 333 kts | 130° |
| 2026-05-07 19:46 | 32.84519 | -111.85430 | 12677 ft | 328 kts | 130° |
| 2026-05-07 19:46 | 32.83012 | -111.83419 | 12237 ft | 322 kts | 130° |
| 2026-05-07 19:47 | 32.81491 | -111.81383 | 11762 ft | 346 kts | 130° |
| 2026-05-07 19:47 | 32.79843 | -111.79173 | 11213 ft | 366 kts | 130° |
| 2026-05-07 19:47 | 32.78135 | -111.76890 | 10705 ft | 369 kts | 130° |
| 2026-05-07 19:47 | 32.76421 | -111.74687 | 10440 ft | 356 kts | 135° |
| 2026-05-07 19:48 | 32.74486 | -111.72974 | 10270 ft | 339 kts | 150° |
| 2026-05-07 19:48 | 32.73370 | -111.72333 | 10194 ft | 330 kts | 154° |
| 2026-05-07 19:48 | 32.71241 | -111.71186 | 10042 ft | 313 kts | 155° |
| 2026-05-07 19:48 | 32.69304 | -111.70185 | 10004 ft | 294 kts | 155° |
| 2026-05-07 19:49 | 32.67478 | -111.69268 | 10004 ft | 278 kts | 156° |
| 2026-05-07 19:49 | 32.65671 | -111.68375 | 10012 ft | 283 kts | 156° |
| 2026-05-07 19:49 | 32.63853 | -111.67483 | 10013 ft | 282 kts | 156° |
| 2026-05-07 19:49 | 32.62043 | -111.66598 | 10015 ft | 281 kts | 156° |
| 2026-05-07 19:50 | 32.60234 | -111.65714 | 10021 ft | 281 kts | 156° |
| 2026-05-07 19:50 | 32.58426 | -111.64831 | 10024 ft | 281 kts | 156° |
| 2026-05-07 19:50 | 32.56618 | -111.63948 | 10029 ft | 281 kts | 156° |
| 2026-05-07 19:50 | 32.55198 | -111.63255 | 10030 ft | 281 kts | 156° |
| 2026-05-07 19:51 | 32.53330 | -111.62585 | 10032 ft | 283 kts | 173° |
| 2026-05-07 19:51 | 32.51388 | -111.62885 | 10030 ft | 286 kts | 200° |
| 2026-05-07 19:51 | 32.49737 | -111.64179 | 10027 ft | 288 kts | 226° |
| 2026-05-07 19:51 | 32.48727 | -111.66206 | 10022 ft | 290 kts | 253° |
| 2026-05-07 19:52 | 32.48562 | -111.68563 | 10020 ft | 290 kts | 279° |
| 2026-05-07 19:52 | 32.49284 | -111.70761 | 10016 ft | 288 kts | 306° |
| 2026-05-07 19:52 | 32.50720 | -111.72374 | 10013 ft | 285 kts | 328° |
| 2026-05-07 19:52 | 32.52456 | -111.73499 | 10006 ft | 284 kts | 336° |
| 2026-05-07 19:53 | 32.54235 | -111.74452 | 10004 ft | 284 kts | 338° |
| 2026-05-07 19:53 | 32.56060 | -111.75420 | 10000 ft | 283 kts | 337° |
| 2026-05-07 19:53 | 32.57845 | -111.76407 | 10001 ft | 283 kts | 336° |
| 2026-05-07 19:53 | 32.59704 | -111.77077 | 10000 ft | 280 kts | 357° |
| 2026-05-07 19:54 | 32.61609 | -111.76782 | 10003 ft | 277 kts | 22° |
| 2026-05-07 19:54 | 32.63213 | -111.75552 | 10002 ft | 276 kts | 47° |
| 2026-05-07 19:54 | 32.64212 | -111.73630 | 9999 ft | 275 kts | 72° |
| 2026-05-07 19:54 | 32.64426 | -111.71420 | 10002 ft | 276 kts | 96° |
| 2026-05-07 19:55 | 32.63825 | -111.69277 | 10008 ft | 277 kts | 121° |
| 2026-05-07 19:55 | 32.62497 | -111.67628 | 10012 ft | 280 kts | 146° |
| 2026-05-07 19:55 | 32.60765 | -111.66557 | 10014 ft | 281 kts | 153° |
| 2026-05-07 19:55 | 32.59008 | -111.65535 | 10022 ft | 280 kts | 153° |
| 2026-05-07 19:56 | 32.57262 | -111.64516 | 10025 ft | 281 kts | 152° |
| 2026-05-07 19:56 | 32.55619 | -111.63549 | 10028 ft | 280 kts | 152° |
| 2026-05-07 19:56 | 32.53797 | -111.62747 | 10029 ft | 282 kts | 170° |
| 2026-05-07 19:56 | 32.51845 | -111.62895 | 10029 ft | 285 kts | 196° |
| 2026-05-07 19:57 | 32.50127 | -111.64065 | 10026 ft | 288 kts | 223° |
| 2026-05-07 19:57 | 32.49018 | -111.66025 | 10021 ft | 289 kts | 250° |
| 2026-05-07 19:57 | 32.48751 | -111.68368 | 10014 ft | 289 kts | 277° |
| 2026-05-07 19:57 | 32.49384 | -111.70607 | 10011 ft | 289 kts | 303° |
| 2026-05-07 19:58 | 32.50777 | -111.72272 | 10010 ft | 285 kts | 330° |
| 2026-05-07 19:58 | 32.52547 | -111.73319 | 10001 ft | 284 kts | 336° |
| 2026-05-07 19:58 | 32.54335 | -111.74317 | 10000 ft | 284 kts | 336° |
| 2026-05-07 19:58 | 32.56116 | -111.75330 | 9998 ft | 283 kts | 336° |
| 2026-05-07 19:59 | 32.57881 | -111.76355 | 9999 ft | 283 kts | 335° |
| 2026-05-07 19:59 | 32.59739 | -111.77052 | 9996 ft | 280 kts | 357° |
| 2026-05-07 19:59 | 32.61620 | -111.76770 | 9996 ft | 277 kts | 22° |
| 2026-05-07 19:59 | 32.63226 | -111.75545 | 10001 ft | 276 kts | 47° |
| 2026-05-07 20:00 | 32.64223 | -111.73629 | 10000 ft | 275 kts | 72° |
| 2026-05-07 20:00 | 32.64436 | -111.71388 | 9998 ft | 276 kts | 96° |
| 2026-05-07 20:00 | 32.63822 | -111.69250 | 10009 ft | 278 kts | 121° |
| 2026-05-07 20:00 | 32.62476 | -111.67611 | 10005 ft | 280 kts | 146° |
| 2026-05-07 20:01 | 32.60745 | -111.66551 | 10009 ft | 281 kts | 153° |
| 2026-05-07 20:01 | 32.58986 | -111.65528 | 10021 ft | 280 kts | 152° |
| 2026-05-07 20:01 | 32.57236 | -111.64505 | 10025 ft | 280 kts | 152° |
| 2026-05-07 20:01 | 32.55595 | -111.63538 | 10024 ft | 280 kts | 152° |
| 2026-05-07 20:02 | 32.53770 | -111.62744 | 10032 ft | 282 kts | 170° |
| 2026-05-07 20:02 | 32.51815 | -111.62903 | 10028 ft | 286 kts | 197° |
| 2026-05-07 20:02 | 32.50106 | -111.64079 | 10024 ft | 288 kts | 223° |
| 2026-05-07 20:02 | 32.49002 | -111.66049 | 10024 ft | 290 kts | 250° |
| 2026-05-07 20:03 | 32.48742 | -111.68390 | 10013 ft | 290 kts | 277° |
| 2026-05-07 20:03 | 32.49381 | -111.70625 | 10006 ft | 288 kts | 304° |
| 2026-05-07 20:03 | 32.50783 | -111.72285 | 10007 ft | 285 kts | 330° |
| 2026-05-07 20:03 | 32.52553 | -111.73331 | 10004 ft | 284 kts | 336° |
| 2026-05-07 20:04 | 32.54314 | -111.74324 | 9998 ft | 284 kts | 336° |
| 2026-05-07 20:04 | 32.56091 | -111.75344 | 9995 ft | 283 kts | 335° |
| 2026-05-07 20:04 | 32.57858 | -111.76375 | 10000 ft | 283 kts | 335° |
| 2026-05-07 20:04 | 32.59714 | -111.77076 | 9995 ft | 280 kts | 356° |
| 2026-05-07 20:05 | 32.61621 | -111.76793 | 9999 ft | 277 kts | 22° |
| 2026-05-07 20:05 | 32.63227 | -111.75566 | 9998 ft | 276 kts | 47° |
| 2026-05-07 20:05 | 32.64225 | -111.73649 | 9997 ft | 275 kts | 72° |
| 2026-05-07 20:05 | 32.64440 | -111.71409 | 9998 ft | 276 kts | 96° |
| 2026-05-07 20:06 | 32.63826 | -111.69260 | 10003 ft | 278 kts | 121° |
| 2026-05-07 20:06 | 32.62490 | -111.67623 | 10006 ft | 280 kts | 146° |
| 2026-05-07 20:06 | 32.61348 | -111.66901 | 10010 ft | 281 kts | 152° |
| 2026-05-07 20:06 | 32.59593 | -111.65878 | 10009 ft | 280 kts | 153° |
| 2026-05-07 20:07 | 32.57842 | -111.64858 | 10015 ft | 280 kts | 153° |
| 2026-05-07 20:07 | 32.56092 | -111.63830 | 10014 ft | 280 kts | 152° |
| 2026-05-07 20:07 | 32.54425 | -111.62928 | 10019 ft | 281 kts | 162° |
| 2026-05-07 20:07 | 32.52482 | -111.62731 | 10018 ft | 284 kts | 187° |
| 2026-05-07 20:08 | 32.50640 | -111.63580 | 10020 ft | 288 kts | 214° |
| 2026-05-07 20:08 | 32.49299 | -111.65317 | 10018 ft | 289 kts | 241° |
| 2026-05-07 20:08 | 32.48741 | -111.67587 | 10010 ft | 290 kts | 268° |
| 2026-05-07 20:08 | 32.49083 | -111.69908 | 10008 ft | 289 kts | 295° |
| 2026-05-07 20:09 | 32.50256 | -111.71811 | 10008 ft | 286 kts | 322° |
| 2026-05-07 20:09 | 32.51962 | -111.72982 | 10001 ft | 284 kts | 336° |
| 2026-05-07 20:09 | 32.53748 | -111.73980 | 10002 ft | 284 kts | 336° |
| 2026-05-07 20:10 | 32.57300 | -111.76015 | 9995 ft | 283 kts | 335° |
| 2026-05-07 20:10 | 32.59108 | -111.76925 | 9996 ft | 281 kts | 348° |
| 2026-05-07 20:10 | 32.61007 | -111.76974 | 9996 ft | 278 kts | 13° |
| 2026-05-07 20:10 | 32.62770 | -111.76024 | 9994 ft | 277 kts | 39° |
| 2026-05-07 20:11 | 32.63987 | -111.74287 | 9995 ft | 275 kts | 64° |
| 2026-05-07 20:11 | 32.64458 | -111.72130 | 9993 ft | 276 kts | 88° |
| 2026-05-07 20:11 | 32.64107 | -111.69907 | 10000 ft | 277 kts | 113° |
| 2026-05-07 20:11 | 32.62977 | -111.68060 | 10004 ft | 279 kts | 138° |
| 2026-05-07 20:12 | 32.61311 | -111.66881 | 10006 ft | 281 kts | 153° |
| 2026-05-07 20:12 | 32.59550 | -111.65857 | 10006 ft | 280 kts | 153° |
| 2026-05-07 20:12 | 32.57799 | -111.64836 | 10015 ft | 281 kts | 153° |
| 2026-05-07 20:12 | 32.56049 | -111.63807 | 10013 ft | 280 kts | 152° |
| 2026-05-07 20:13 | 32.54383 | -111.62912 | 10014 ft | 281 kts | 162° |
| 2026-05-07 20:13 | 32.52437 | -111.62733 | 10023 ft | 284 kts | 188° |
| 2026-05-07 20:13 | 32.50601 | -111.63596 | 10018 ft | 287 kts | 214° |
| 2026-05-07 20:13 | 32.49272 | -111.65340 | 10016 ft | 289 kts | 241° |
| 2026-05-07 20:14 | 32.48723 | -111.67619 | 10009 ft | 290 kts | 268° |
| 2026-05-07 20:14 | 32.49079 | -111.69941 | 10005 ft | 289 kts | 295° |
| 2026-05-07 20:14 | 32.50261 | -111.71831 | 10002 ft | 286 kts | 322° |
| 2026-05-07 20:14 | 32.51971 | -111.73000 | 9999 ft | 284 kts | 336° |
| 2026-05-07 20:15 | 32.53728 | -111.74001 | 9995 ft | 284 kts | 336° |
| 2026-05-07 20:15 | 32.55528 | -111.75039 | 9997 ft | 284 kts | 335° |
| 2026-05-07 20:15 | 32.57271 | -111.76059 | 9992 ft | 283 kts | 335° |
| 2026-05-07 20:15 | 32.59074 | -111.76971 | 9992 ft | 281 kts | 348° |
| 2026-05-07 20:16 | 32.61001 | -111.77024 | 9993 ft | 278 kts | 13° |
| 2026-05-07 20:16 | 32.62748 | -111.76089 | 9994 ft | 277 kts | 39° |
| 2026-05-07 20:16 | 32.63977 | -111.74364 | 9990 ft | 275 kts | 64° |
| 2026-05-07 20:16 | 32.64466 | -111.72185 | 9989 ft | 276 kts | 88° |
| 2026-05-07 20:17 | 32.64128 | -111.69959 | 9997 ft | 277 kts | 112° |
| 2026-05-07 20:17 | 32.63017 | -111.68103 | 10003 ft | 279 kts | 137° |
| 2026-05-07 20:17 | 32.61357 | -111.66906 | 10006 ft | 281 kts | 152° |
| 2026-05-07 20:17 | 32.59599 | -111.65882 | 10007 ft | 281 kts | 153° |
| 2026-05-07 20:18 | 32.57847 | -111.64861 | 10013 ft | 280 kts | 153° |
| 2026-05-07 20:18 | 32.56096 | -111.63832 | 10011 ft | 280 kts | 152° |
| 2026-05-07 20:18 | 32.54432 | -111.62929 | 10015 ft | 281 kts | 161° |
| 2026-05-07 20:18 | 32.52491 | -111.62642 | 10021 ft | 283 kts | 176° |
| 2026-05-07 20:19 | 32.50560 | -111.62368 | 10000 ft | 281 kts | 162° |
| 2026-05-07 20:19 | 32.48857 | -111.61291 | 9792 ft | 275 kts | 137° |
| 2026-05-07 20:19 | 32.47752 | -111.59507 | 9284 ft | 275 kts | 112° |
| 2026-05-07 20:19 | 32.47371 | -111.57267 | 8539 ft | 284 kts | 91° |
| 2026-05-07 20:20 | 32.47408 | -111.54913 | 7969 ft | 286 kts | 88° |
| 2026-05-07 20:20 | 32.47406 | -111.52559 | 7474 ft | 286 kts | 92° |
| 2026-05-07 20:20 | 32.47266 | -111.50216 | 7014 ft | 285 kts | 96° |
| 2026-05-07 20:20 | 32.47022 | -111.47946 | 6883 ft | 271 kts | 98° |
| 2026-05-07 20:21 | 32.46736 | -111.45795 | 6785 ft | 258 kts | 99° |
| 2026-05-07 20:21 | 32.46441 | -111.43747 | 6691 ft | 246 kts | 99° |
| 2026-05-07 20:21 | 32.46154 | -111.41802 | 6598 ft | 234 kts | 99° |
| 2026-05-07 20:21 | 32.45875 | -111.39923 | 6408 ft | 230 kts | 99° |
| 2026-05-07 20:22 | 32.45601 | -111.38058 | 6136 ft | 230 kts | 99° |
| 2026-05-07 20:22 | 32.45326 | -111.36192 | 5838 ft | 230 kts | 99° |
| 2026-05-07 20:22 | 32.45053 | -111.34334 | 5599 ft | 226 kts | 99° |
| 2026-05-07 20:22 | 32.44805 | -111.32552 | 5365 ft | 215 kts | 95° |
| 2026-05-07 20:23 | 32.44713 | -111.30786 | 4964 ft | 214 kts | 91° |
| 2026-05-07 20:23 | 32.45020 | -111.29089 | 4520 ft | 208 kts | 62° |
| 2026-05-07 20:23 | 32.45986 | -111.27980 | 4062 ft | 188 kts | 19° |
| 2026-05-07 20:23 | 32.47205 | -111.27984 | 3553 ft | 165 kts | 312° |
| 2026-05-07 20:24 | 32.48008 | -111.28799 | 3233 ft | 146 kts | 310° |
| 2026-05-07 20:24 | 32.48631 | -111.29752 | 2844 ft | 145 kts | 310° |
| 2026-05-07 20:24 | 32.49324 | -111.30548 | 2458 ft | 137 kts | 316° |
| 2026-05-07 20:24 | 32.49953 | -111.31324 | 2111 ft | 141 kts | 313° |
| 2026-05-07 20:25 | 32.50630 | -111.32118 | 1898 ft | 125 kts | 314° |
| 2026-05-07 20:25 | 32.51189 | -111.32775 | 1896 ft | 99 kts | 315° |
| 2026-05-07 20:25 | 32.51449 | -111.33079 | 1894 ft | 41 kts | 316° |
| 2026-05-07 20:25 | 32.51630 | -111.33277 | 1881 ft | 19 kts | 345° |
| 2026-05-07 20:26 | 32.51729 | -111.33255 | 1881 ft | 6 kts | 56° |
| 2026-05-07 20:26 | 32.51730 | -111.33217 | 1887 ft | 7 kts | 91° |
| 2026-05-07 20:26 | 32.51704 | -111.33152 | 1891 ft | 12 kts | 133° |
| 2026-05-07 20:26 | 32.51597 | -111.33024 | 1888 ft | 34 kts | 136° |
| 2026-05-07 20:27 | 32.51392 | -111.32779 | 1886 ft | 46 kts | 134° |
| 2026-05-07 20:27 | 32.51158 | -111.32492 | 1890 ft | 50 kts | 135° |
| 2026-05-07 20:27 | 32.50909 | -111.32198 | 1887 ft | 50 kts | 135° |
| 2026-05-07 20:27 | 32.50741 | -111.31996 | 1892 ft | 20 kts | 135° |
| 2026-05-07 20:28 | 32.50690 | -111.31879 | 1895 ft | 16 kts | 81° |
| 2026-05-07 20:28 | 32.50717 | -111.31824 | 1893 ft | 0 kts | 45° |